Time;durP1;ratioP1;P1;durP2;ratioP2;P2;SDS_P1;SDS_P2;PMS_P1;PMS_P2;Temp;Humidity;BMP_temperature;BMP_pressure;BME280_temperature;BME280_humidity;BME280_pressure;Samples;Min_cycle;Max_cycle;Signal;HPM_P1;HPM_P2
2022/01/06 00:08:38;;;;;;;4.00;1.33;;;;;;;14.24;52.76;100826.13;21053946;28;20443;-70
2022/01/06 00:23:07;;;;;;;3.45;1.35;;;;;;;14.40;52.75;100870.50;21053688;28;20112;-70
2022/01/06 00:29:01;;;;;;;3.53;1.25;;;;;;;14.43;52.70;100891.72;21071148;28;20048;-70
2022/01/06 00:39:04;;;;;;;4.68;1.38;;;;;;;13.89;52.85;100794.78;21070525;28;20048;-70
2022/01/06 00:49:05;;;;;;;4.55;1.40;;;;;;;14.04;52.79;100844.50;21052362;28;20056;-70
2022/01/06 00:59:07;;;;;;;4.45;1.00;;;;;;;14.40;52.67;100906.19;21069480;28;20048;-70
2022/01/06 01:09:09;;;;;;;3.85;1.10;;;;;;;14.42;52.66;100922.13;21080018;28;20056;-70
2022/01/06 01:19:13;;;;;;;3.83;1.10;;;;;;;14.30;52.62;100911.38;21084358;28;20442;-70
2022/01/06 01:29:17;;;;;;;4.82;1.10;;;;;;;13.95;52.24;100863.91;21083327;28;20046;-70
2022/01/06 01:39:19;;;;;;;3.55;1.42;;;;;;;14.41;52.23;100942.72;21082400;28;20490;-70
2022/01/06 01:59:25;;;;;;;3.45;1.23;;;;;;;14.36;52.17;100972.50;21080520;28;20496;-70
2022/01/06 02:09:27;;;;;;;4.15;1.20;;;;;;;13.92;52.34;100909.63;21062091;28;20468;-71
2022/01/06 02:19:28;;;;;;;4.25;1.42;;;;;;;13.85;52.06;100914.56;21077847;28;20432;-70
2022/01/06 02:29:30;;;;;;;4.00;1.50;;;;;;;13.93;52.09;100932.75;21060599;28;20052;-70
2022/01/06 02:39:32;;;;;;;5.43;1.20;;;;;;;14.45;52.01;101031.75;21077516;28;20071;-70
2022/01/06 02:49:34;;;;;;;3.60;1.33;;;;;;;13.92;52.08;100947.13;21076531;28;20078;-70
2022/01/06 02:59:36;;;;;;;4.15;1.20;;;;;;;13.93;52.04;100959.53;21057888;28;20048;-70
2022/01/06 03:09:41;;;;;;;4.65;1.35;;;;;;;14.42;51.47;101056.06;21074785;28;20056;-70
2022/01/06 03:19:43;;;;;;;4.13;1.30;;;;;;;14.38;51.01;101078.69;21074355;28;20040;-69
2022/01/06 03:29:45;;;;;;;4.45;1.30;;;;;;;13.86;51.42;100990.38;21055606;28;20052;-69
2022/01/06 03:39:47;;;;;;;5.97;1.70;;;;;;;13.73;51.14;100996.59;21073271;28;20113;-70
2022/01/06 03:49:48;;;;;;;4.20;1.10;;;;;;;13.84;51.08;101019.06;21054812;28;20102;-70
2022/01/06 03:59:50;;;;;;;4.13;1.38;;;;;;;13.91;51.27;101041.75;21072299;28;20048;-69
2022/01/06 04:09:52;;;;;;;4.55;1.35;;;;;;;14.38;51.11;101134.94;21072458;28;20122;-70
2022/01/06 04:19:54;;;;;;;4.40;1.38;;;;;;;13.88;50.91;101071.41;21071298;28;20047;-70
2022/01/06 04:29:56;;;;;;;5.32;1.40;;;;;;;14.36;50.95;101165.34;21070955;28;20040;-70
2022/01/06 04:39:57;;;;;;;4.05;1.27;;;;;;;13.87;50.96;101083.91;21057265;28;20044;-70
2022/01/06 04:49:59;;;;;;;4.70;1.30;;;;;;;14.43;50.59;101164.94;21069743;28;20048;-70
2022/01/06 05:00:01;;;;;;;4.65;1.08;;;;;;;14.55;50.52;101166.75;21085466;28;20507;-69
2022/01/06 05:10:03;;;;;;;3.35;1.08;;;;;;;14.77;49.75;101192.91;21084769;28;20259;-70
2022/01/06 05:20:06;;;;;;;4.82;1.70;;;;;;;14.31;49.67;101118.41;21065670;28;20048;-70
2022/01/06 05:30:08;;;;;;;3.85;1.15;;;;;;;14.81;49.38;101201.59;21065370;28;20101;-69
2022/01/06 05:40:11;;;;;;;2.90;1.00;;;;;;;14.67;49.73;101181.09;21082500;28;20051;-69
2022/01/06 05:50:12;;;;;;;5.10;1.38;;;;;;;14.76;49.75;101167.06;21063810;28;20052;-71
2022/01/06 06:00:15;;;;;;;3.67;1.08;;;;;;;14.82;49.65;101147.03;21080695;28;20052;-69
2022/01/06 06:10:22;;;;;;;3.42;1.35;;;;;;;15.13;49.51;101166.28;21080153;28;20078;-68
2022/01/06 06:20:23;;;;;;;4.60;1.10;;;;;;;15.29;49.66;101167.81;21061009;28;20101;-70
2022/01/06 06:30:26;;;;;;;3.53;1.17;;;;;;;15.83;49.59;101255.13;21078193;28;20060;-69
2022/01/06 06:40:28;;;;;;;3.88;1.20;;;;;;;15.85;49.11;101271.97;21059333;28;20052;-70
2022/01/06 06:50:29;;;;;;;3.78;1.25;;;;;;;15.05;49.26;101145.38;21076818;28;20052;-70
2022/01/06 07:00:31;;;;;;;5.25;1.20;;;;;;;15.51;48.71;101226.13;21075343;28;20375;-70
2022/01/06 07:10:33;;;;;;;3.85;1.05;;;;;;;15.44;49.24;101211.47;21057501;28;20113;-71
2022/01/06 07:20:35;;;;;;;2.95;1.20;;;;;;;15.65;49.22;101236.69;21074607;28;20044;-72
2022/01/06 07:30:37;;;;;;;3.45;1.10;;;;;;;15.30;48.48;101185.63;21073979;28;20641;-71
2022/01/06 07:40:39;;;;;;;3.42;1.10;;;;;;;15.80;48.59;101299.13;21073392;28;20051;-70
2022/01/06 07:50:41;;;;;;;4.35;1.30;;;;;;;15.97;48.93;101350.78;21072976;28;20056;-70
2022/01/06 08:00:43;;;;;;;2.95;1.17;;;;;;;16.07;49.38;101389.41;21072031;28;20048;-70
2022/01/06 08:10:45;;;;;;;6.05;1.58;;;;;;;16.02;49.26;101362.03;21071813;28;20489;-70
2022/01/06 08:20:47;;;;;;;3.50;1.33;;;;;;;16.34;48.96;101409.84;21086214;28;20048;-70
2022/01/06 08:30:48;;;;;;;5.13;1.65;;;;;;;15.88;48.56;101324.59;21087831;28;20055;-70
2022/01/06 08:40:50;;;;;;;3.97;1.15;;;;;;;16.36;48.63;101421.34;21087562;28;20044;-70
2022/01/06 08:50:52;;;;;;;4.28;1.10;;;;;;;16.33;48.37;101410.81;21086408;28;20102;-71
2022/01/06 09:00:54;;;;;;;3.25;1.10;;;;;;;15.93;48.08;101328.66;21067413;28;20055;-71
2022/01/06 09:10:56;;;;;;;2.97;1.10;;;;;;;16.35;48.25;101391.91;21084674;28;20042;-71
2022/01/06 09:21:02;;;;;;;3.85;1.30;;;;;;;16.41;48.12;101426.38;21066856;28;20046;-71
2022/01/06 09:31:03;;;;;;;4.50;1.30;;;;;;;16.45;48.24;101438.59;21082694;28;20117;-71
2022/01/06 09:41:06;;;;;;;2.65;1.13;;;;;;;16.52;47.97;101447.09;21082780;28;20045;-71
2022/01/06 09:51:09;;;;;;;4.55;1.40;;;;;;;16.54;47.70;101466.63;21081587;28;20079;-72
2022/01/06 10:01:11;;;;;;;4.75;1.33;;;;;;;16.51;48.08;101448.06;21080559;28;20048;-71
2022/01/06 10:11:19;;;;;;;3.33;1.27;;;;;;;16.46;48.15;101444.84;21062075;28;20202;-71
2022/01/06 10:21:21;;;;;;;3.22;1.08;;;;;;;16.07;47.50;101384.06;21079533;28;20044;-70
2022/01/06 10:31:32;;;;;;;5.32;1.27;;;;;;;16.04;47.63;101376.22;21078439;28;20051;-71
2022/01/06 10:41:36;;;;;;;4.45;1.58;;;;;;;16.34;47.96;101439.38;21076457;28;20060;-70
2022/01/06 10:51:40;;;;;;;7.75;1.80;;;;;;;16.51;48.05;101464.19;21078212;28;20070;-72
2022/01/06 11:01:42;;;;;;;5.22;1.27;;;;;;;16.49;48.29;101439.25;21076282;28;20048;-71
2022/01/06 11:12:26;;;;;;;6.72;1.60;;;;;;;15.86;48.81;101326.50;21074800;28;20752;-71
2022/01/06 11:22:07;;;;;;;5.18;1.60;;;;;;;16.57;50.28;101423.41;21074405;28;20040;-72
2022/01/06 11:32:22;;;;;;;3.53;1.38;;;;;;;16.66;50.56;101441.53;21056312;28;20043;-73
2022/01/06 11:42:25;;;;;;;3.90;1.43;;;;;;;16.23;51.03;101356.03;21055235;28;20102;-71
2022/01/06 11:52:27;;;;;;;4.53;1.30;;;;;;;16.69;51.30;101437.75;21072393;28;20052;-73
2022/01/06 12:02:29;;;;;;;3.92;1.30;;;;;;;16.18;51.38;101361.78;21072148;28;20070;-71
2022/01/06 12:12:38;;;;;;;5.18;1.33;;;;;;;16.22;51.16;101359.72;21071983;28;20121;-71
2022/01/06 12:22:42;;;;;;;4.47;1.20;;;;;;;16.71;51.23;101435.81;21054084;28;20139;-71
2022/01/06 12:33:01;;;;;;;6.97;1.90;;;;;;;16.80;51.15;101436.97;21071063;28;20113;-72
2022/01/06 12:43:13;;;;;;;3.55;1.00;;;;;;;16.94;50.73;101426.00;21052767;28;20040;-72
2022/01/06 12:53:30;;;;;;;6.10;1.60;;;;;;;17.09;50.47;101424.00;21070277;28;20086;-71
2022/01/06 13:03:33;;;;;;;3.22;1.58;;;;;;;17.78;48.81;101408.78;21078003;28;20556;-71
2022/01/06 13:13:49;;;;;;;3.65;1.50;;;;;;;18.55;46.66;101409.75;21084497;28;20079;-71
2022/01/06 13:23:50;;;;;;;4.75;1.48;;;;;;;17.72;47.33;101320.41;21084406;28;20052;-74
2022/01/06 13:33:54;;;;;;;4.25;1.25;;;;;;;17.71;48.44;101401.31;21083152;28;20067;-85
2022/01/06 13:43:58;;;;;;;6.57;1.30;;;;;;;17.36;49.21;101387.00;21082406;28;20052;-72
2022/01/06 13:54:07;;;;;;;3.30;1.40;;;;;;;16.71;49.87;101319.34;21063908;28;20052;-72
2022/01/06 14:04:17;;;;;;;4.57;1.50;;;;;;;16.37;50.43;101277.97;21080798;28;20444;-71
2022/01/06 14:14:19;;;;;;;4.10;1.30;;;;;;;16.48;50.40;101300.47;21079828;28;20097;-73
2022/01/06 14:24:20;;;;;;;4.72;1.52;;;;;;;16.82;50.37;101365.09;21079064;28;20135;-72
2022/01/06 14:34:23;;;;;;;5.45;1.63;;;;;;;16.83;50.33;101385.63;21060473;28;20044;-72
2022/01/06 14:44:25;;;;;;;5.53;1.40;;;;;;;16.79;50.39;101381.44;21077547;28;20048;-72
2022/01/06 14:54:26;;;;;;;4.25;1.50;;;;;;;16.76;50.20;101378.97;21076900;28;20036;-72
2022/01/06 15:04:28;;;;;;;4.32;1.33;;;;;;;16.19;50.27;101293.66;21067272;28;20048;-74
2022/01/06 15:14:30;;;;;;;5.70;1.65;;;;;;;15.86;50.17;101219.09;21074964;28;20074;-73
2022/01/06 15:24:32;;;;;;;5.57;1.60;;;;;;;15.85;50.54;101220.06;21073874;28;20051;-72
2022/01/06 15:34:34;;;;;;;4.40;1.20;;;;;;;16.63;50.44;101336.91;21073656;28;20055;-72
2022/01/06 15:44:36;;;;;;;4.28;1.48;;;;;;;16.68;50.60;101344.66;21072953;28;20075;-72
2022/01/06 15:54:39;;;;;;;4.97;1.40;;;;;;;16.74;50.38;101354.06;21072178;28;20044;-72
2022/01/06 16:05:12;;;;;;;4.82;1.50;;;;;;;16.71;50.47;101371.28;21071815;28;20040;-71
2022/01/06 16:15:16;;;;;;;4.00;1.50;;;;;;;15.89;50.60;101224.28;21071427;28;20048;-72
2022/01/06 16:25:20;;;;;;;3.95;1.40;;;;;;;16.70;50.21;101360.63;21055275;28;20083;-75
2022/01/06 16:35:21;;;;;;;5.07;1.42;;;;;;;16.77;49.92;101361.88;21074506;28;20048;-72
2022/01/06 16:45:23;;;;;;;5.22;1.60;;;;;;;16.67;49.85;101359.06;21086905;28;20390;-72
2022/01/06 16:55:26;;;;;;;3.88;1.55;;;;;;;16.76;49.89;101362.84;21051599;28;20060;-72
2022/01/06 17:05:28;;;;;;;3.35;1.30;;;;;;;16.37;49.95;101293.22;21067162;28;20050;-72
2022/01/06 17:15:31;;;;;;;5.65;1.60;;;;;;;16.81;50.01;101371.44;21084718;28;20056;-71
2022/01/06 17:25:33;;;;;;;5.40;1.33;;;;;;;16.60;49.71;101330.94;21083805;28;20048;-72
2022/01/06 17:35:35;;;;;;;2.60;1.20;;;;;;;16.31;49.97;101273.03;21083118;28;20048;-71
2022/01/06 17:45:37;;;;;;;4.03;1.50;;;;;;;16.48;49.89;101289.72;21081582;28;20052;-71
2022/01/06 17:55:38;;;;;;;2.80;1.10;;;;;;;16.36;50.00;101270.00;21081361;28;20043;-72
2022/01/06 18:05:42;;;;;;;4.43;1.80;;;;;;;16.65;49.88;101308.09;21080222;28;20044;-71
2022/01/06 18:15:44;;;;;;;3.40;1.20;;;;;;;16.36;50.10;101235.94;21155768;22;20061;-71
2022/01/06 18:25:46;;;;;;;3.72;1.63;;;;;;;16.82;50.16;101295.19;21209262;22;20053;-70
2022/01/06 18:35:48;;;;;;;3.67;1.35;;;;;;;15.97;49.70;101133.28;21125691;22;20056;-72
2022/01/06 18:45:51;;;;;;;4.00;1.20;;;;;;;16.41;49.83;101199.81;21561460;22;20512;-71
2022/01/06 18:55:53;;;;;;;4.25;1.50;;;;;;;16.74;49.71;101225.88;20992510;28;20059;-71
2022/01/06 19:05:56;;;;;;;3.17;1.33;;;;;;;16.00;49.75;101087.41;20958679;28;20398;-71
2022/01/06 19:15:58;;;;;;;4.63;1.52;;;;;;;16.37;49.80;101148.13;20995457;28;20067;-72
2022/01/06 19:26:00;;;;;;;5.40;1.77;;;;;;;16.69;49.92;101190.44;20991620;28;20048;-71
2022/01/06 19:36:02;;;;;;;4.28;1.50;;;;;;;16.28;49.77;101138.94;20990385;28;20551;-70
2022/01/06 19:46:04;;;;;;;4.45;1.45;;;;;;;16.67;49.72;101235.41;20989844;28;20122;-71
2022/01/06 19:56:06;;;;;;;5.35;1.50;;;;;;;16.56;50.05;101201.28;20989765;28;20054;-71
2022/01/06 20:06:10;;;;;;;4.85;1.70;;;;;;;15.90;49.85;101106.03;20988581;28;20432;-71
2022/01/06 20:16:11;;;;;;;4.53;1.80;;;;;;;15.93;50.13;101113.00;21012605;28;20044;-71
2022/01/06 20:26:13;;;;;;;4.35;2.22;;;;;;;15.86;49.98;101111.72;21015821;28;20052;-71
2022/01/06 20:36:15;;;;;;;5.05;2.28;;;;;;;16.11;49.96;101166.25;21015109;28;20421;-71
2022/01/06 20:46:20;;;;;;;6.68;3.13;;;;;;;15.72;50.12;101108.25;21014537;28;20341;-70
2022/01/06 20:56:24;;;;;;;7.28;2.50;;;;;;;15.84;50.02;101145.88;21014409;28;20114;-71
2022/01/06 21:06:26;;;;;;;5.03;2.40;;;;;;;15.72;50.07;101139.63;20997468;28;20052;-71
2022/01/06 21:16:28;;;;;;;4.57;2.08;;;;;;;15.30;50.14;101073.84;21013317;28;20400;-71
2022/01/06 21:26:30;;;;;;;5.70;1.98;;;;;;;15.55;50.68;101114.06;21002313;28;20049;-71
2022/01/06 21:36:32;;;;;;;5.38;2.55;;;;;;;15.28;50.29;101080.28;20981519;28;20051;-71
2022/01/06 21:46:34;;;;;;;4.93;2.10;;;;;;;15.17;50.47;101051.56;20998629;28;20110;-71
2022/01/06 21:56:36;;;;;;;3.58;1.92;;;;;;;14.78;50.87;101001.66;20997932;28;20056;-70
2022/01/06 22:06:38;;;;;;;5.43;2.00;;;;;;;15.19;50.69;101068.41;20997080;28;20071;-71
2022/01/06 22:16:41;;;;;;;5.50;2.33;;;;;;;15.02;50.66;101040.16;20978563;28;20048;-70
2022/01/06 22:26:43;;;;;;;4.40;1.90;;;;;;;15.02;50.73;101040.16;20977819;28;20059;-70
2022/01/06 22:36:45;;;;;;;4.95;2.13;;;;;;;14.98;51.07;101033.31;21015063;22;20053;-71
2022/01/06 22:46:46;;;;;;;7.00;2.50;;;;;;;14.89;51.07;101006.22;20993447;28;20056;-71
2022/01/06 22:56:48;;;;;;;5.10;1.90;;;;;;;14.49;50.54;100952.84;20974995;28;20411;-71
2022/01/06 23:06:50;;;;;;;6.32;2.47;;;;;;;14.75;51.02;100998.34;20992411;28;20482;-71
2022/01/06 23:16:52;;;;;;;6.65;2.05;;;;;;;14.57;50.89;100952.31;20973736;28;20553;-70
2022/01/06 23:26:55;;;;;;;5.00;2.20;;;;;;;14.12;50.57;100861.81;20990460;28;20046;-70
2022/01/06 23:36:56;;;;;;;6.70;2.30;;;;;;;14.42;51.04;100914.09;20971957;28;20548;-70
2022/01/06 23:46:58;;;;;;;6.40;2.40;;;;;;;14.02;50.55;100835.72;20989339;28;20048;-72
2022/01/06 23:57:00;;;;;;;6.40;2.40;;;;;;;14.49;50.62;100896.59;20988900;28;20044;-71
